Time;durP1;ratioP1;P1;durP2;ratioP2;P2;SDS_P1;SDS_P2;PMS_P1;PMS_P2;Temp;Humidity;BMP_temperature;BMP_pressure;BME280_temperature;BME280_humidity;BME280_pressure;Samples;Min_cycle;Max_cycle;Signal;HPM_P1;HPM_P2
2021/10/15 00:02:06;;;;;;;3.80;3.10;;;12.20;99.90;;;;;;4914108;29;20458;-83
2021/10/15 00:04:35;;;;;;;5.43;2.80;;;12.20;99.90;;;;;;4913259;29;20517;-79
2021/10/15 00:07:03;;;;;;;3.40;2.23;;;12.10;99.90;;;;;;4907485;29;20465;-81
2021/10/15 00:09:31;;;;;;;2.87;2.43;;;12.10;99.90;;;;;;4913863;29;20515;-81
2021/10/15 00:11:59;;;;;;;3.80;2.40;;;12.10;99.90;;;;;;4925101;29;20466;-81
2021/10/15 00:14:28;;;;;;;5.07;2.73;;;12.10;99.90;;;;;;4914212;29;20485;-81
2021/10/15 00:16:57;;;;;;;4.83;2.40;;;12.00;99.90;;;;;;4909577;29;20470;-80
2021/10/15 00:19:25;;;;;;;3.37;2.73;;;12.00;99.90;;;;;;4915611;29;20454;-80
2021/10/15 00:21:54;;;;;;;2.63;2.43;;;12.00;99.90;;;;;;4916054;29;20462;-81
2021/10/15 00:24:22;;;;;;;4.30;2.80;;;12.10;99.90;;;;;;4915311;29;21022;-80
2021/10/15 00:26:50;;;;;;;5.37;3.07;;;12.10;99.90;;;;;;4917262;29;20454;-81
2021/10/15 00:29:18;;;;;;;3.33;2.30;;;12.10;99.90;;;;;;4914851;29;20454;-82
2021/10/15 00:31:46;;;;;;;3.83;2.60;;;12.10;99.90;;;;;;4913245;29;20847;-80
2021/10/15 00:34:17;;;;;;;5.43;2.70;;;12.10;99.90;;;;;;4913700;29;20513;-80
2021/10/15 00:36:45;;;;;;;3.20;2.30;;;12.10;99.90;;;;;;4914123;29;20538;-81
2021/10/15 00:39:13;;;;;;;3.03;2.73;;;12.00;99.90;;;;;;4923848;29;20468;-81
2021/10/15 00:41:41;;;;;;;3.00;2.60;;;12.10;99.90;;;;;;4914363;29;20470;-81
2021/10/15 00:44:11;;;;;;;2.87;2.23;;;12.20;99.90;;;;;;4919770;29;20453;-80
2021/10/15 00:46:41;;;;;;;3.90;2.43;;;12.10;99.90;;;;;;4925888;29;20481;-82
2021/10/15 00:49:11;;;;;;;3.53;2.60;;;12.20;99.90;;;;;;4923521;29;20495;-83
2021/10/15 00:51:42;;;;;;;3.80;2.60;;;12.20;99.90;;;;;;4914972;29;20525;-80
2021/10/15 00:54:13;;;;;;;2.80;2.60;;;12.20;99.90;;;;;;4930040;29;20478;-79
2021/10/15 00:56:43;;;;;;;2.80;1.97;;;12.50;99.90;;;;;;4927084;29;20485;-79
2021/10/15 00:59:12;;;;;;;2.43;2.23;;;12.30;99.90;;;;;;4921597;29;20521;-80
2021/10/15 01:01:41;;;;;;;2.40;2.00;;;12.30;99.90;;;;;;4921688;29;21159;-81
2021/10/15 01:04:10;;;;;;;5.20;2.03;;;12.30;99.90;;;;;;4920808;29;20452;-80
2021/10/15 01:06:38;;;;;;;3.03;2.10;;;12.40;99.90;;;;;;4920306;29;20469;-80
2021/10/15 01:09:08;;;;;;;2.70;1.70;;;12.40;99.90;;;;;;4921713;29;20465;-81
2021/10/15 01:11:36;;;;;;;2.80;1.80;;;12.30;99.90;;;;;;4934963;29;20574;-80
2021/10/15 01:14:04;;;;;;;2.33;2.00;;;12.40;99.90;;;;;;4924186;29;20481;-81
2021/10/15 01:16:34;;;;;;;3.40;2.27;;;12.40;99.90;;;;;;4923082;29;20474;-80
2021/10/15 01:19:04;;;;;;;3.20;2.17;;;12.40;99.90;;;;;;4922948;29;21001;-81
2021/10/15 01:21:33;;;;;;;4.13;2.37;;;12.40;99.90;;;;;;4919566;29;20508;-81
2021/10/15 01:24:03;;;;;;;2.83;2.63;;;12.40;99.90;;;;;;4919964;29;20463;-80
2021/10/15 01:26:31;;;;;;;2.40;2.20;;;12.40;99.90;;;;;;4912680;29;20474;-81
2021/10/15 01:28:59;;;;;;;2.50;2.20;;;12.40;99.90;;;;;;4917510;29;20485;-82
2021/10/15 01:31:28;;;;;;;2.90;1.90;;;12.30;99.90;;;;;;4912877;29;20462;-81
2021/10/15 01:33:58;;;;;;;3.30;2.57;;;12.30;99.90;;;;;;4915689;29;20562;-81
2021/10/15 01:36:27;;;;;;;2.33;1.80;;;12.20;99.90;;;;;;4915060;29;20501;-82
2021/10/15 01:38:57;;;;;;;3.30;1.80;;;12.30;99.90;;;;;;4914573;29;20527;-82
2021/10/15 01:41:25;;;;;;;3.43;2.40;;;12.30;99.90;;;;;;4915126;29;21037;-82
2021/10/15 01:43:54;;;;;;;3.57;1.60;;;12.30;99.90;;;;;;4919904;29;20451;-81
2021/10/15 01:46:22;;;;;;;3.57;2.20;;;12.20;99.90;;;;;;4921315;29;20993;-81
2021/10/15 01:48:50;;;;;;;3.40;1.83;;;12.30;99.90;;;;;;4916170;29;20514;-81
2021/10/15 01:51:18;;;;;;;3.00;2.43;;;12.30;99.90;;;;;;4915456;29;20824;-81
2021/10/15 01:53:46;;;;;;;4.83;2.10;;;12.30;99.90;;;;;;4918521;29;20973;-81
2021/10/15 01:56:16;;;;;;;2.30;2.10;;;12.30;99.90;;;;;;4915602;29;20488;-80
2021/10/15 01:58:44;;;;;;;2.90;1.90;;;12.30;99.90;;;;;;4916980;29;21194;-80
2021/10/15 02:01:12;;;;;;;3.10;1.60;;;12.30;99.90;;;;;;4918229;29;20968;-79
2021/10/15 02:03:41;;;;;;;3.60;2.00;;;12.40;99.90;;;;;;4914129;29;20469;-82
2021/10/15 02:06:09;;;;;;;2.63;2.43;;;12.40;99.90;;;;;;4918332;29;20481;-82
2021/10/15 02:08:37;;;;;;;2.43;1.80;;;12.40;99.90;;;;;;4922515;29;20482;-82
2021/10/15 02:11:05;;;;;;;2.77;1.93;;;12.40;99.90;;;;;;4912274;29;20465;-81
2021/10/15 02:13:35;;;;;;;3.47;2.00;;;12.40;99.90;;;;;;4913604;29;20456;-81
2021/10/15 02:16:04;;;;;;;2.27;1.90;;;12.50;99.90;;;;;;4914124;29;20491;-81
2021/10/15 02:18:32;;;;;;;2.50;1.80;;;12.50;99.90;;;;;;4915934;29;20467;-81
2021/10/15 02:21:00;;;;;;;2.77;1.77;;;12.50;99.90;;;;;;4912308;29;22317;-81
2021/10/15 02:23:28;;;;;;;2.57;2.37;;;12.50;99.90;;;;;;4914816;29;20459;-81
2021/10/15 02:25:57;;;;;;;2.30;2.10;;;12.40;99.90;;;;;;4918583;29;20826;-81
2021/10/15 02:28:25;;;;;;;3.03;2.30;;;12.40;99.90;;;;;;4935354;29;20821;-81
2021/10/15 02:30:54;;;;;;;3.17;2.00;;;12.40;99.90;;;;;;4932979;29;20521;-82
2021/10/15 02:33:22;;;;;;;3.30;2.17;;;12.40;99.90;;;;;;4923094;29;20470;-82
2021/10/15 02:35:51;;;;;;;2.57;2.37;;;12.30;99.90;;;;;;4918321;29;20494;-81
2021/10/15 02:38:19;;;;;;;3.07;2.77;;;12.30;99.90;;;;;;4916617;29;20460;-80
2021/10/15 02:40:48;;;;;;;3.10;2.23;;;12.30;99.90;;;;;;4918573;29;20486;-81
2021/10/15 02:43:16;;;;;;;2.67;2.30;;;12.30;99.90;;;;;;4917214;29;20462;-82
2021/10/15 02:45:44;;;;;;;4.90;2.00;;;12.30;99.90;;;;;;4917735;29;20486;-81
2021/10/15 02:48:14;;;;;;;3.13;2.83;;;12.30;99.90;;;;;;4909097;29;20464;-82
2021/10/15 02:50:42;;;;;;;5.30;2.20;;;12.30;99.90;;;;;;4913672;29;20459;-82
2021/10/15 02:53:10;;;;;;;6.00;2.53;;;12.30;99.90;;;;;;4916887;29;20469;-81
2021/10/15 02:55:38;;;;;;;2.77;2.27;;;12.20;99.90;;;;;;4917894;29;20477;-82
2021/10/15 02:58:06;;;;;;;2.47;2.27;;;12.20;99.90;;;;;;4909840;29;20466;-82
2021/10/15 03:00:35;;;;;;;3.30;2.50;;;12.20;99.90;;;;;;4925615;29;20465;-82
2021/10/15 03:03:03;;;;;;;2.80;2.20;;;12.20;99.90;;;;;;4915874;29;20469;-82
2021/10/15 03:05:32;;;;;;;2.00;1.80;;;12.20;99.90;;;;;;4923652;29;20518;-82
2021/10/15 03:08:01;;;;;;;2.67;2.40;;;12.20;99.90;;;;;;4918978;29;20468;-81
2021/10/15 03:10:29;;;;;;;2.90;2.30;;;12.10;99.90;;;;;;4915367;29;20472;-82
2021/10/15 03:12:57;;;;;;;3.97;2.90;;;12.20;99.90;;;;;;4912011;29;20443;-82
2021/10/15 03:15:25;;;;;;;3.90;2.00;;;12.10;99.90;;;;;;4913355;29;21671;-80
2021/10/15 03:17:54;;;;;;;4.10;2.27;;;12.10;99.90;;;;;;4911862;29;20830;-81
2021/10/15 03:20:22;;;;;;;5.30;2.80;;;12.10;99.90;;;;;;4912200;29;20509;-80
2021/10/15 03:22:52;;;;;;;2.80;2.20;;;12.10;99.90;;;;;;4920530;29;20477;-81
2021/10/15 03:25:20;;;;;;;2.93;2.20;;;12.10;99.90;;;;;;4908817;29;20884;-81
2021/10/15 03:27:48;;;;;;;3.10;2.30;;;12.10;99.90;;;;;;4923033;29;20464;-82
2021/10/15 03:30:16;;;;;;;4.70;2.70;;;12.10;99.90;;;;;;4913440;29;21025;-81
2021/10/15 03:32:44;;;;;;;3.60;2.17;;;12.10;99.90;;;;;;4916733;29;20947;-83
2021/10/15 03:35:12;;;;;;;5.93;2.47;;;12.10;99.90;;;;;;4919082;29;20601;-82
2021/10/15 03:37:40;;;;;;;3.20;2.30;;;12.10;99.90;;;;;;4908503;29;20463;-82
2021/10/15 03:40:11;;;;;;;2.03;1.77;;;12.10;99.90;;;;;;4910977;29;20479;-82
2021/10/15 03:42:40;;;;;;;2.67;2.47;;;12.00;99.90;;;;;;4916559;29;20462;-81
2021/10/15 03:45:10;;;;;;;2.53;2.10;;;12.00;99.90;;;;;;4925059;29;20467;-81
2021/10/15 03:47:38;;;;;;;3.63;1.80;;;12.00;99.90;;;;;;4911750;29;20463;-81
2021/10/15 03:50:09;;;;;;;2.47;2.27;;;11.90;99.90;;;;;;4913993;29;20851;-81
2021/10/15 03:52:37;;;;;;;3.03;2.00;;;11.90;99.90;;;;;;4915587;29;20469;-80
2021/10/15 03:55:10;;;;;;;4.00;2.20;;;11.90;99.90;;;;;;4914300;29;20485;-82
2021/10/15 03:57:40;;;;;;;4.03;2.30;;;11.90;99.90;;;;;;4913575;29;20570;-81
2021/10/15 04:00:10;;;;;;;2.43;2.00;;;11.90;99.90;;;;;;4913017;29;20466;-81
2021/10/15 04:02:39;;;;;;;2.60;2.00;;;11.90;99.90;;;;;;4914318;29;20472;-82
2021/10/15 04:05:08;;;;;;;1.83;1.73;;;11.90;99.90;;;;;;4903846;29;21018;-81
2021/10/15 04:07:37;;;;;;;2.00;1.63;;;11.90;99.90;;;;;;4913415;29;20471;-82
2021/10/15 04:10:07;;;;;;;1.80;1.57;;;11.90;99.90;;;;;;4913705;29;20469;-81
2021/10/15 04:12:35;;;;;;;2.30;2.10;;;11.90;99.90;;;;;;4914744;29;20466;-81
2021/10/15 04:15:07;;;;;;;1.77;1.67;;;11.90;99.90;;;;;;4913404;29;20472;-82
2021/10/15 04:17:35;;;;;;;2.03;1.83;;;11.90;99.90;;;;;;4916472;29;20981;-81
2021/10/15 04:20:04;;;;;;;3.43;2.90;;;11.90;99.90;;;;;;4927921;29;20461;-81
2021/10/15 04:22:32;;;;;;;2.00;1.80;;;11.90;99.90;;;;;;4916882;29;20521;-82
2021/10/15 04:25:00;;;;;;;3.00;2.50;;;11.90;99.90;;;;;;4914500;29;20486;-82
2021/10/15 04:27:28;;;;;;;1.80;1.70;;;11.90;99.90;;;;;;4919098;29;20462;-82
2021/10/15 04:29:56;;;;;;;2.60;1.60;;;11.90;99.90;;;;;;4913369;29;20475;-82
2021/10/15 04:32:26;;;;;;;2.00;1.70;;;11.90;99.90;;;;;;4915110;29;20558;-77
2021/10/15 04:34:54;;;;;;;2.53;2.03;;;11.90;99.90;;;;;;4912905;29;20541;-73
2021/10/15 04:37:23;;;;;;;2.30;2.10;;;11.80;99.90;;;;;;4911949;29;20483;-75
2021/10/15 04:39:51;;;;;;;2.70;2.20;;;11.70;99.90;;;;;;4915199;29;20451;-82
2021/10/15 04:42:20;;;;;;;1.97;1.73;;;11.80;99.90;;;;;;4921095;29;20199;-79
2021/10/15 04:44:48;;;;;;;2.83;2.07;;;11.90;99.90;;;;;;4913405;29;20479;-79
2021/10/15 04:47:16;;;;;;;3.43;2.10;;;11.60;99.90;;;;;;4914614;29;20454;-80
2021/10/15 04:49:45;;;;;;;4.13;1.87;;;11.90;99.90;;;;;;4911911;29;20463;-79
2021/10/15 04:52:13;;;;;;;2.40;2.20;;;11.90;99.90;;;;;;4915140;29;20560;-81
2021/10/15 04:54:42;;;;;;;2.23;2.00;;;11.90;99.90;;;;;;4912628;29;20500;-81
2021/10/15 04:57:10;;;;;;;3.40;2.83;;;11.80;99.90;;;;;;4912294;29;20483;-80
2021/10/15 04:59:38;;;;;;;4.67;2.10;;;11.80;99.90;;;;;;4910757;29;20519;-80
2021/10/15 05:02:06;;;;;;;2.30;2.10;;;11.80;99.90;;;;;;4915244;29;20474;-79
2021/10/15 05:04:35;;;;;;;2.63;2.20;;;11.80;99.90;;;;;;4908418;29;20534;-79
2021/10/15 05:07:04;;;;;;;2.27;2.07;;;11.70;99.90;;;;;;4907718;29;20459;-80
2021/10/15 05:09:36;;;;;;;1.80;1.70;;;11.70;99.90;;;;;;4911070;29;20460;-80
2021/10/15 05:12:07;;;;;;;4.03;2.70;;;11.60;99.90;;;;;;4911308;29;20458;-80
2021/10/15 05:14:36;;;;;;;3.80;2.40;;;11.60;99.90;;;;;;4903387;29;20812;-79
2021/10/15 05:17:04;;;;;;;3.07;2.57;;;11.50;99.90;;;;;;4905496;29;20483;-82
2021/10/15 05:19:33;;;;;;;2.30;2.10;;;11.50;99.90;;;;;;4904117;29;20471;-79
2021/10/15 05:22:04;;;;;;;3.00;2.70;;;11.50;99.90;;;;;;4905855;29;20468;-80
2021/10/15 05:24:32;;;;;;;2.43;2.00;;;11.50;99.90;;;;;;4903743;29;20469;-81
2021/10/15 05:27:00;;;;;;;1.80;1.70;;;11.40;99.90;;;;;;4903736;29;20552;-80
2021/10/15 05:29:28;;;;;;;3.37;2.30;;;11.40;99.90;;;;;;4900917;29;20525;-79
2021/10/15 05:31:56;;;;;;;3.47;2.27;;;11.40;99.90;;;;;;4907537;29;20592;-79
2021/10/15 05:34:25;;;;;;;3.33;3.03;;;11.40;99.90;;;;;;4909387;29;20456;-79
2021/10/15 05:36:53;;;;;;;4.80;2.07;;;11.40;99.90;;;;;;4907788;29;20487;-79
2021/10/15 05:39:22;;;;;;;3.50;2.40;;;11.40;99.90;;;;;;4905651;29;20472;-80
2021/10/15 05:41:50;;;;;;;3.77;3.47;;;11.40;99.90;;;;;;4907531;29;20465;-78
2021/10/15 05:44:19;;;;;;;3.00;2.30;;;11.40;99.90;;;;;;4911290;29;20882;-79
2021/10/15 05:46:47;;;;;;;5.33;2.90;;;11.40;99.90;;;;;;4905349;29;20460;-80
2021/10/15 05:49:16;;;;;;;4.63;2.50;;;11.30;99.90;;;;;;4906802;29;20458;-80
2021/10/15 05:51:47;;;;;;;2.97;2.67;;;11.30;99.90;;;;;;4904978;29;20490;-82
2021/10/15 05:54:23;;;;;;;4.70;4.20;;;11.20;99.90;;;;;;4923381;29;20474;-80
2021/10/15 05:57:03;;;;;;;6.13;2.70;;;11.30;99.90;;;;;;4907173;29;20488;-79
2021/10/15 05:59:31;;;;;;;23.37;8.40;;;11.30;99.90;;;;;;4907896;29;20467;-78
2021/10/15 06:02:02;;;;;;;33.83;8.00;;;11.30;99.90;;;;;;4911119;29;20461;-82
2021/10/15 06:15:45;;;;;;;2.83;2.30;;;11.20;99.90;;;;;;4910461;29;20475;-80
2021/10/15 06:18:15;;;;;;;2.90;2.33;;;11.20;99.90;;;;;;4912872;29;20492;-80
2021/10/15 06:20:45;;;;;;;2.90;2.37;;;11.20;99.90;;;;;;4911042;29;20602;-80
2021/10/15 06:23:13;;;;;;;3.10;2.40;;;11.20;99.90;;;;;;4910868;29;20489;-80
2021/10/15 06:25:41;;;;;;;3.60;2.77;;;11.20;99.90;;;;;;4915236;29;20482;-80
2021/10/15 06:28:11;;;;;;;6.57;2.60;;;11.30;99.90;;;;;;4908223;29;20449;-79
2021/10/15 06:30:41;;;;;;;4.00;2.60;;;11.30;99.90;;;;;;4910171;29;20949;-81
2021/10/15 06:33:09;;;;;;;3.37;2.50;;;11.30;99.90;;;;;;4907359;29;20452;-78
2021/10/15 06:35:38;;;;;;;3.73;3.03;;;11.30;99.90;;;;;;4909517;29;20504;-80
2021/10/15 06:38:07;;;;;;;3.47;1.90;;;11.20;99.90;;;;;;4912380;29;20491;-79
2021/10/15 06:40:36;;;;;;;5.87;2.57;;;11.20;99.90;;;;;;4915083;29;20474;-79
2021/10/15 06:43:05;;;;;;;3.67;2.40;;;11.30;99.90;;;;;;4914047;29;20981;-78
2021/10/15 06:45:35;;;;;;;4.10;2.70;;;11.30;99.90;;;;;;4911574;29;20467;-79
2021/10/15 06:48:04;;;;;;;4.13;2.93;;;11.30;99.90;;;;;;4909197;29;20454;-78
2021/10/15 06:50:32;;;;;;;5.37;2.40;;;11.30;99.90;;;;;;4909681;29;20469;-79
2021/10/15 06:53:00;;;;;;;10.93;5.40;;;11.30;99.90;;;;;;4913316;29;20458;-79
2021/10/15 06:55:28;;;;;;;6.97;3.20;;;11.30;99.90;;;;;;4912487;29;20477;-79
2021/10/15 06:57:57;;;;;;;8.50;3.43;;;11.30;99.90;;;;;;4916262;29;20478;-80
2021/10/15 07:00:25;;;;;;;7.23;2.97;;;11.40;99.90;;;;;;4910686;29;20466;-79
2021/10/15 07:02:54;;;;;;;3.03;2.13;;;11.40;99.90;;;;;;4913962;29;20472;-79
2021/10/15 07:05:24;;;;;;;4.63;2.80;;;11.50;99.90;;;;;;4908270;29;20997;-78
2021/10/15 07:07:52;;;;;;;4.43;2.90;;;11.40;99.90;;;;;;4909515;29;20506;-78
2021/10/15 07:10:21;;;;;;;3.70;2.73;;;11.50;99.90;;;;;;4912921;29;20468;-79
2021/10/15 07:12:49;;;;;;;3.10;2.80;;;11.50;99.90;;;;;;4914730;29;20818;-79
2021/10/15 07:15:17;;;;;;;2.57;2.37;;;11.50;99.90;;;;;;4906369;29;20481;-80
2021/10/15 07:17:45;;;;;;;4.40;2.63;;;11.60;99.90;;;;;;4915308;29;21060;-80
2021/10/15 07:20:15;;;;;;;3.10;2.17;;;11.60;99.90;;;;;;4912875;29;21861;-78
2021/10/15 07:22:43;;;;;;;5.13;2.90;;;11.60;99.90;;;;;;4914352;29;20461;-77
2021/10/15 07:25:11;;;;;;;2.47;2.27;;;11.70;99.90;;;;;;4914358;29;20486;-78
2021/10/15 07:27:40;;;;;;;3.50;2.50;;;11.80;99.90;;;;;;4914709;29;20795;-78
2021/10/15 07:30:10;;;;;;;5.00;3.57;;;11.90;99.90;;;;;;4914305;29;20488;-79
2021/10/15 07:32:38;;;;;;;2.63;2.43;;;12.00;99.90;;;;;;4908964;29;20458;-79
2021/10/15 07:35:07;;;;;;;3.40;2.13;;;12.00;99.90;;;;;;4911898;29;20487;-78
2021/10/15 07:37:37;;;;;;;44.20;16.27;;;12.20;99.90;;;;;;4910365;29;20490;-78
2021/10/15 07:40:07;;;;;;;13.90;8.73;;;12.30;99.90;;;;;;4906426;29;20465;-80
2021/10/15 07:42:35;;;;;;;7.13;4.70;;;12.50;99.90;;;;;;4914976;29;20458;-78
2021/10/15 07:45:04;;;;;;;3.73;3.40;;;12.70;99.90;;;;;;4911255;29;20493;-78
2021/10/15 07:47:39;;;;;;;4.53;2.80;;;12.90;99.90;;;;;;4905458;29;20479;-79
2021/10/15 07:50:07;;;;;;;2.80;2.37;;;13.00;99.90;;;;;;4906529;29;20882;-78
2021/10/15 07:52:40;;;;;;;2.67;2.10;;;13.10;99.90;;;;;;4911949;29;20537;-80
2021/10/15 07:55:10;;;;;;;3.63;2.50;;;13.30;99.90;;;;;;4912401;29;20483;-79
2021/10/15 07:57:38;;;;;;;3.77;2.20;;;13.40;99.90;;;;;;4913198;29;20571;-80
2021/10/15 08:00:09;;;;;;;4.93;3.30;;;13.50;99.90;;;;;;4907147;29;20469;-79
2021/10/15 08:02:37;;;;;;;4.80;2.27;;;13.70;99.90;;;;;;4914562;29;20450;-79
2021/10/15 08:05:07;;;;;;;3.30;2.13;;;13.90;99.90;;;;;;4913180;29;20589;-79
2021/10/15 08:07:35;;;;;;;3.23;2.07;;;14.10;99.90;;;;;;4910452;29;20454;-80
2021/10/15 08:10:05;;;;;;;1.60;1.50;;;14.30;99.90;;;;;;4904491;29;20541;-79
2021/10/15 08:12:39;;;;;;;2.30;1.90;;;14.50;99.90;;;;;;4911756;29;20466;-78
2021/10/15 08:15:09;;;;;;;3.10;1.50;;;14.70;99.90;;;;;;4908966;29;20490;-79
2021/10/15 08:17:42;;;;;;;1.57;1.40;;;14.80;99.90;;;;;;4911581;29;20490;-79
2021/10/15 08:20:14;;;;;;;1.93;1.73;;;14.80;99.90;;;;;;4911251;29;20477;-80
2021/10/15 08:22:47;;;;;;;2.60;1.80;;;14.90;99.90;;;;;;4913155;29;20764;-81
2021/10/15 08:25:26;;;;;;;2.57;1.30;;;15.00;99.90;;;;;;4928532;29;20540;-79
2021/10/15 08:27:55;;;;;;;4.20;2.03;;;15.20;99.90;;;;;;4913005;29;20486;-79
2021/10/15 08:30:26;;;;;;;1.47;1.37;;;15.40;99.90;;;;;;4906799;29;20464;-80
2021/10/15 08:32:56;;;;;;;2.50;2.30;;;15.60;99.90;;;;;;4914201;29;20673;-79
2021/10/15 08:35:25;;;;;;;2.40;1.77;;;15.90;99.90;;;;;;4913024;29;20483;-79
2021/10/15 08:37:53;;;;;;;2.90;1.87;;;16.20;99.90;;;;;;4915106;29;20542;-79
2021/10/15 08:40:22;;;;;;;3.33;2.00;;;16.40;99.90;;;;;;4913582;29;20452;-79
2021/10/15 08:42:53;;;;;;;3.30;1.92;;;16.80;99.90;;;;;;4912319;29;20473;-80
2021/10/15 08:45:24;;;;;;;3.50;1.98;;;17.20;99.90;;;;;;4912044;29;20477;-79
2021/10/15 08:47:52;;;;;;;1.80;1.70;;;17.60;99.90;;;;;;4910662;29;20194;-80
2021/10/15 08:50:39;;;;;;;1.53;1.43;;;17.90;99.90;;;;;;4913300;29;20460;-80
2021/10/15 08:53:09;;;;;;;2.33;1.70;;;18.10;99.90;;;;;;4917709;29;20467;-80
2021/10/15 08:55:37;;;;;;;3.90;2.13;;;18.30;99.90;;;;;;4918632;29;20482;-81
2021/10/15 08:58:07;;;;;;;1.50;1.40;;;18.40;99.90;;;;;;4905925;29;20561;-81
2021/10/15 09:00:36;;;;;;;3.13;2.93;;;18.60;99.90;;;;;;4910086;29;20830;-80
2021/10/15 09:03:19;;;;;;;1.70;1.40;;;18.70;99.90;;;;;;4911021;29;20450;-80
2021/10/15 09:05:56;;;;;;;2.27;1.53;;;19.00;99.90;;;;;;4909445;29;20485;-80
2021/10/15 09:08:27;;;;;;;2.50;1.67;;;19.10;99.90;;;;;;4907063;29;20458;-80
2021/10/15 09:10:56;;;;;;;1.30;1.20;;;19.30;99.90;;;;;;4910348;29;20851;-81
2021/10/15 09:13:26;;;;;;;1.30;1.10;;;19.50;99.90;;;;;;4914798;29;20460;-79
2021/10/15 09:16:03;;;;;;;3.10;1.30;;;19.80;99.90;;;;;;4909577;29;20492;-79
2021/10/15 09:18:32;;;;;;;3.93;1.23;;;20.10;99.90;;;;;;4912379;29;20484;-81
2021/10/15 09:21:14;;;;;;;1.70;1.30;;;20.20;99.90;;;;;;4912121;29;20494;-80
2021/10/15 09:23:45;;;;;;;2.33;1.23;;;20.40;99.90;;;;;;4910966;29;20210;-81
2021/10/15 09:26:13;;;;;;;1.67;1.33;;;20.60;99.90;;;;;;4911309;29;20517;-80
2021/10/15 09:28:44;;;;;;;1.40;1.30;;;20.60;99.90;;;;;;4910654;29;20505;-81
2021/10/15 09:31:14;;;;;;;1.43;1.33;;;20.50;99.90;;;;;;4911781;29;21051;-82
2021/10/15 09:33:54;;;;;;;1.17;1.07;;;20.50;99.90;;;;;;4909636;29;20591;-80
2021/10/15 09:36:22;;;;;;;1.63;1.30;;;20.60;99.90;;;;;;4909951;29;20500;-81
2021/10/15 09:38:51;;;;;;;1.20;1.10;;;20.70;99.90;;;;;;4910405;29;20497;-81
2021/10/15 09:41:39;;;;;;;1.80;1.13;;;20.90;99.90;;;;;;4909499;29;21072;-80
2021/10/15 09:44:31;;;;;;;1.80;1.20;;;20.90;99.90;;;;;;4913066;29;21155;-81
2021/10/15 09:47:15;;;;;;;1.07;0.97;;;20.80;99.90;;;;;;4906118;29;20478;-81
2021/10/15 09:49:55;;;;;;;0.90;0.80;;;21.00;99.90;;;;;;4910111;29;20954;-81
2021/10/15 09:52:37;;;;;;;1.50;1.00;;;21.30;99.90;;;;;;4911096;29;20461;-80
2021/10/15 09:55:21;;;;;;;1.30;1.20;;;21.50;99.90;;;;;;4907649;29;20481;-81
2021/10/15 09:57:52;;;;;;;1.13;1.03;;;21.70;99.90;;;;;;4905243;29;20938;-81
2021/10/15 10:00:24;;;;;;;1.40;1.30;;;21.80;99.90;;;;;;4911047;29;20458;-81
2021/10/15 10:02:52;;;;;;;1.97;1.07;;;22.00;99.90;;;;;;4911755;29;20462;-81
2021/10/15 10:05:21;;;;;;;1.13;1.03;;;22.20;99.90;;;;;;4907158;29;20497;-81
2021/10/15 10:07:51;;;;;;;2.40;1.10;;;22.50;99.90;;;;;;4909745;29;20462;-81
2021/10/15 10:10:21;;;;;;;1.30;1.20;;;22.80;99.90;;;;;;4910347;29;20450;-82
2021/10/15 10:12:50;;;;;;;2.80;1.53;;;23.20;99.90;;;;;;4915310;29;20453;-80
2021/10/15 10:15:22;;;;;;;2.03;1.20;;;23.10;99.90;;;;;;4902925;29;20471;-81
2021/10/15 10:17:56;;;;;;;1.40;1.30;;;23.20;99.90;;;;;;4910332;29;20500;-81
2021/10/15 10:20:28;;;;;;;1.50;1.20;;;23.40;99.90;;;;;;4911389;29;20492;-81
2021/10/15 10:23:06;;;;;;;1.30;1.10;;;23.70;99.90;;;;;;4911174;29;20812;-82
2021/10/15 10:25:35;;;;;;;1.30;1.20;;;23.80;99.90;;;;;;4916265;29;20477;-81
2021/10/15 10:28:19;;;;;;;2.40;1.10;;;24.20;99.90;;;;;;4910922;29;20475;-82
2021/10/15 10:30:51;;;;;;;1.23;1.13;;;24.30;99.90;;;;;;4909893;29;21191;-82
2021/10/15 10:33:21;;;;;;;3.63;1.63;;;24.50;99.90;;;;;;4902232;29;20457;-81
2021/10/15 10:35:50;;;;;;;1.30;1.10;;;24.80;99.90;;;;;;4913197;29;20827;-81
2021/10/15 10:38:31;;;;;;;2.20;1.23;;;25.00;99.90;;;;;;4913475;29;20458;-80
2021/10/15 10:41:17;;;;;;;1.77;1.00;;;25.20;99.90;;;;;;4912592;29;20473;-82
2021/10/15 10:44:10;;;;;;;1.40;1.30;;;25.30;99.90;;;;;;4909243;29;20466;-82
2021/10/15 10:46:41;;;;;;;1.20;1.10;;;26.00;99.90;;;;;;4905757;29;20481;-81
2021/10/15 10:49:21;;;;;;;1.30;1.20;;;25.90;99.90;;;;;;4913922;29;20454;-81
2021/10/15 10:52:14;;;;;;;1.53;1.20;;;25.80;99.90;;;;;;4914281;29;20460;-82
2021/10/15 10:54:45;;;;;;;1.80;1.20;;;25.90;99.90;;;;;;4917028;29;20549;-83
2021/10/15 10:57:19;;;;;;;1.03;1.00;;;26.00;99.90;;;;;;4918242;29;21253;-81
2021/10/15 10:59:50;;;;;;;1.17;0.80;;;26.00;99.90;;;;;;4917922;29;20485;-84
2021/10/15 11:02:21;;;;;;;1.37;1.27;;;26.20;99.90;;;;;;4914255;29;20462;-83
2021/10/15 11:05:00;;;;;;;1.17;1.07;;;26.40;99.90;;;;;;4918242;29;20480;-82
2021/10/15 11:07:29;;;;;;;1.10;1.00;;;26.40;99.90;;;;;;4930273;29;20540;-80
2021/10/15 11:10:03;;;;;;;1.30;1.20;;;26.20;99.90;;;;;;4915727;29;20446;-81
2021/10/15 11:13:00;;;;;;;1.30;1.20;;;25.90;99.90;;;;;;4915728;29;20462;-81
2021/10/15 11:15:31;;;;;;;1.20;1.00;;;25.40;99.90;;;;;;4910708;29;20485;-80
2021/10/15 11:18:01;;;;;;;1.83;1.27;;;25.00;99.90;;;;;;4914532;29;20469;-81
2021/10/15 11:20:32;;;;;;;1.30;1.20;;;24.70;99.90;;;;;;4913044;29;21012;-81
2021/10/15 11:23:03;;;;;;;1.23;0.90;;;24.40;99.90;;;;;;4911993;29;20458;-81
2021/10/15 11:25:33;;;;;;;1.20;1.00;;;24.10;99.90;;;;;;4921131;29;20470;-80
2021/10/15 11:28:03;;;;;;;1.20;1.10;;;23.90;99.90;;;;;;4916076;29;20463;-80
2021/10/15 11:30:34;;;;;;;1.40;1.30;;;23.80;99.90;;;;;;4913208;29;20561;-81
2021/10/15 11:33:06;;;;;;;2.40;1.60;;;23.70;99.90;;;;;;4913987;29;20465;-80
2021/10/15 11:35:36;;;;;;;1.13;1.00;;;23.60;99.90;;;;;;4922374;29;20491;-81
2021/10/15 11:38:06;;;;;;;1.20;1.03;;;23.40;99.90;;;;;;4915676;29;20458;-80
2021/10/15 11:40:37;;;;;;;1.40;1.30;;;23.30;99.90;;;;;;4914759;29;20489;-80
2021/10/15 11:43:15;;;;;;;1.73;1.07;;;23.20;99.90;;;;;;4915481;29;20457;-81
2021/10/15 11:45:46;;;;;;;1.27;1.20;;;23.10;99.90;;;;;;4905109;29;20497;-81
2021/10/15 11:48:17;;;;;;;1.10;1.00;;;22.90;99.90;;;;;;4912740;29;20458;-80
2021/10/15 11:50:54;;;;;;;1.30;1.20;;;22.70;99.90;;;;;;4914259;29;20493;-81
2021/10/15 11:53:25;;;;;;;2.70;1.50;;;22.60;99.90;;;;;;4911152;29;20845;-80
2021/10/15 11:55:54;;;;;;;1.30;1.20;;;22.50;99.90;;;;;;4912886;29;20508;-81
2021/10/15 11:58:34;;;;;;;1.73;1.10;;;22.50;99.90;;;;;;4908427;29;20534;-79
2021/10/15 12:01:09;;;;;;;1.43;1.13;;;22.40;99.90;;;;;;4910803;29;20500;-80
2021/10/15 12:03:42;;;;;;;1.40;1.10;;;22.40;99.90;;;;;;4908685;29;20457;-80
2021/10/15 12:06:32;;;;;;;2.13;1.30;;;22.40;99.90;;;;;;4904653;29;21097;-80
2021/10/15 12:09:06;;;;;;;1.40;1.20;;;22.30;99.90;;;;;;4909395;29;20466;-79
2021/10/15 12:11:46;;;;;;;8.13;1.10;;;22.30;99.90;;;;;;4910351;29;20561;-81
2021/10/15 12:14:20;;;;;;;1.53;0.90;;;22.30;99.90;;;;;;4910272;29;20513;-79
2021/10/15 12:16:52;;;;;;;1.37;1.10;;;22.30;99.90;;;;;;4915089;29;20469;-79
2021/10/15 12:19:24;;;;;;;1.63;1.20;;;22.20;99.90;;;;;;4910776;29;20466;-80
2021/10/15 12:22:00;;;;;;;1.10;1.00;;;22.20;99.90;;;;;;4912941;29;20469;-78
2021/10/15 12:24:30;;;;;;;1.10;1.00;;;22.00;99.90;;;;;;4908655;29;20460;-80
2021/10/15 12:27:06;;;;;;;2.70;1.37;;;22.00;99.90;;;;;;4910343;29;20458;-80
2021/10/15 12:29:36;;;;;;;1.57;1.10;;;22.00;99.90;;;;;;4907349;29;20457;-79
2021/10/15 12:32:23;;;;;;;1.20;1.10;;;22.00;99.90;;;;;;4923267;29;20462;-79
2021/10/15 12:35:07;;;;;;;0.97;0.90;;;21.90;99.90;;;;;;4907787;29;20504;-79
2021/10/15 12:37:40;;;;;;;2.90;1.20;;;22.00;99.90;;;;;;4908083;29;20464;-81
2021/10/15 12:40:21;;;;;;;1.30;1.20;;;21.90;99.90;;;;;;4928593;29;20477;-80
2021/10/15 12:43:00;;;;;;;2.80;1.10;;;21.80;99.90;;;;;;4912653;29;20831;-79
2021/10/15 12:45:31;;;;;;;1.60;1.10;;;21.80;99.90;;;;;;4908974;29;20600;-81
2021/10/15 12:48:01;;;;;;;1.07;0.97;;;21.80;99.90;;;;;;4909072;29;20462;-80
2021/10/15 12:50:32;;;;;;;1.83;1.13;;;21.80;99.90;;;;;;4910956;29;20454;-80
2021/10/15 12:53:12;;;;;;;1.30;1.20;;;21.70;99.90;;;;;;4910865;29;20469;-79
2021/10/15 12:55:53;;;;;;;1.53;1.20;;;21.60;99.90;;;;;;4913460;29;20491;-79
2021/10/15 12:58:22;;;;;;;2.40;1.10;;;21.40;99.90;;;;;;4914287;29;20475;-80
2021/10/15 13:00:53;;;;;;;1.13;1.03;;;21.40;99.90;;;;;;4911538;29;20502;-79
2021/10/15 13:03:22;;;;;;;1.17;1.07;;;21.40;99.90;;;;;;4901730;29;20574;-78
2021/10/15 13:05:55;;;;;;;2.70;1.33;;;21.30;99.90;;;;;;4910238;29;20489;-79
2021/10/15 13:08:24;;;;;;;1.30;1.17;;;21.30;99.90;;;;;;4911035;29;20456;-79
2021/10/15 13:10:53;;;;;;;1.50;1.40;;;21.20;99.90;;;;;;4912069;29;20978;-79
2021/10/15 13:13:21;;;;;;;1.37;1.27;;;21.20;99.90;;;;;;4909984;29;20476;-78
2021/10/15 13:15:50;;;;;;;1.70;1.60;;;21.10;99.90;;;;;;4910936;29;20478;-78